createdAt,value
2022-12-18T00:01:34.165Z,-2.03
2022-12-18T00:04:04.496Z,-2.11
2022-12-18T00:06:33.727Z,-2.11
2022-12-18T00:09:02.107Z,-2.13
2022-12-18T00:11:31.240Z,-2.06
2022-12-18T00:13:59.927Z,-2.12
2022-12-18T00:16:29.014Z,-2.10
2022-12-18T00:19:00.528Z,-2.15
2022-12-18T00:21:29.231Z,-2.15
2022-12-18T00:23:57.487Z,-2.24
2022-12-18T00:26:31.203Z,-2.23
2022-12-18T00:29:01.800Z,-2.22
2022-12-18T00:31:31.730Z,-2.21
2022-12-18T00:34:00.167Z,-2.21
2022-12-18T00:36:30.246Z,-2.24
2022-12-18T00:38:59.268Z,-2.22
2022-12-18T00:41:45.977Z,-2.20
2022-12-18T00:44:16.214Z,-2.34
2022-12-18T00:46:44.754Z,-2.28
2022-12-18T00:49:12.929Z,-2.33
2022-12-18T00:51:40.547Z,-2.34
2022-12-18T00:54:08.518Z,-2.32
2022-12-18T00:56:45.737Z,-2.39
2022-12-18T00:59:18.108Z,-2.32
2022-12-18T01:01:45.945Z,-2.36
2022-12-18T01:04:14.103Z,-2.37
2022-12-18T01:06:42.038Z,-2.32
2022-12-18T01:09:09.570Z,-2.38
2022-12-18T01:11:37.701Z,-2.46
2022-12-18T01:14:05.804Z,-2.50
2022-12-18T01:16:33.407Z,-2.39
2022-12-18T01:19:01.038Z,-2.44
2022-12-18T01:21:29.016Z,-2.52
2022-12-18T01:23:57.400Z,-2.43
2022-12-18T01:26:25.985Z,-2.51
2022-12-18T01:28:55.834Z,-2.49
2022-12-18T01:31:26.885Z,-2.51
2022-12-18T01:33:56.228Z,-2.51
2022-12-18T01:36:29.764Z,-2.57
2022-12-18T01:39:00.097Z,-2.64
2022-12-18T01:41:53.251Z,-2.52
2022-12-18T01:44:55.667Z,-2.55
2022-12-18T01:47:30.267Z,-2.53
2022-12-18T01:50:00.699Z,-2.48
2022-12-18T01:52:30.364Z,-2.42
2022-12-18T01:54:58.298Z,-2.45
2022-12-18T01:57:28.308Z,-2.36
2022-12-18T01:59:58.938Z,-2.43
2022-12-18T02:02:30.269Z,-2.29
2022-12-18T02:04:59.708Z,-2.25
2022-12-18T02:07:36.293Z,-2.24
2022-12-18T02:10:30.408Z,-2.17
2022-12-18T02:13:12.986Z,-2.19
2022-12-18T02:15:46.432Z,-2.20
2022-12-18T02:18:22.685Z,-2.13
2022-12-18T02:20:55.551Z,-2.11
2022-12-18T02:23:47.347Z,-2.17
2022-12-18T02:26:21.054Z,-2.21
2022-12-18T02:28:56.483Z,-2.09
2022-12-18T02:31:31.155Z,-2.11
2022-12-18T02:34:01.605Z,-2.22
2022-12-18T02:36:29.628Z,-2.15
2022-12-18T02:38:58.120Z,-2.19
2022-12-18T02:41:26.566Z,-2.15
2022-12-18T02:44:00.665Z,-2.15
2022-12-18T02:46:41.736Z,-2.06
2022-12-18T02:49:27.134Z,-2.07
2022-12-18T02:52:19.982Z,-2.07
2022-12-18T02:54:51.372Z,-2.05
2022-12-18T02:57:26.470Z,-2.01
2022-12-18T03:00:01.647Z,-2.06
2022-12-18T03:02:40.899Z,-2.03
2022-12-18T03:05:23.230Z,-2.03
2022-12-18T03:07:57.955Z,-1.99
2022-12-18T03:10:31.207Z,-2.01
2022-12-18T03:13:27.485Z,-2.01
2022-12-18T03:15:56.675Z,-1.98
2022-12-18T03:18:43.914Z,-1.98
2022-12-18T03:21:12.300Z,-2.02
2022-12-18T03:23:48.087Z,-1.95
2022-12-18T03:26:20.326Z,-1.91
2022-12-18T03:28:53.604Z,-1.83
2022-12-18T03:31:23.601Z,-1.93
2022-12-18T03:33:57.289Z,-1.87
2022-12-18T03:36:26.061Z,-1.85
2022-12-18T03:38:54.080Z,-1.84
2022-12-18T03:41:31.629Z,-1.80
2022-12-18T03:44:14.879Z,-1.80
2022-12-18T03:46:58.170Z,-1.92
2022-12-18T03:49:31.607Z,-1.73
2022-12-18T03:52:12.621Z,-1.71
2022-12-18T03:54:42.748Z,-1.70
2022-12-18T03:57:15.368Z,-1.64
2022-12-18T03:59:44.407Z,-1.69
2022-12-18T04:02:16.004Z,-1.68
2022-12-18T04:04:44.399Z,-1.62
2022-12-18T04:07:13.161Z,-1.62
2022-12-18T04:09:41.918Z,-1.61
2022-12-18T04:12:10.103Z,-1.66
2022-12-18T04:14:37.914Z,-1.65
2022-12-18T04:17:06.111Z,-1.65
2022-12-18T04:19:34.006Z,-1.55
2022-12-18T04:22:02.257Z,-1.59
2022-12-18T04:24:31.757Z,-1.57
2022-12-18T04:27:02.440Z,-1.59
2022-12-18T04:29:31.385Z,-1.69
2022-12-18T04:31:58.910Z,-1.67
2022-12-18T04:34:27.140Z,-1.73
2022-12-18T04:36:54.757Z,-1.74
2022-12-18T04:39:22.666Z,-1.66
2022-12-18T04:41:50.846Z,-1.65
2022-12-18T04:44:18.743Z,-1.65
2022-12-18T04:46:46.238Z,-1.75
2022-12-18T04:49:14.123Z,-1.70
2022-12-18T04:51:41.765Z,-1.71
2022-12-18T04:54:09.231Z,-1.69
2022-12-18T04:56:36.996Z,-1.78
2022-12-18T04:59:04.485Z,-1.69
2022-12-18T05:01:34.805Z,-1.70
2022-12-18T05:04:04.755Z,-1.67
2022-12-18T05:06:32.379Z,-1.70
2022-12-18T05:08:59.917Z,-1.72
2022-12-18T05:11:27.680Z,-1.67
2022-12-18T05:13:56.591Z,-1.66
2022-12-18T05:16:24.244Z,-1.67
2022-12-18T05:18:52.017Z,-1.69
2022-12-18T05:21:20.356Z,-1.81
2022-12-18T05:23:47.919Z,-1.67
2022-12-18T05:26:18.380Z,-1.72
2022-12-18T05:28:46.931Z,-1.78
2022-12-18T05:31:14.942Z,-1.81
2022-12-18T05:33:43.125Z,-1.77
2022-12-18T05:36:11.035Z,-1.88
2022-12-18T05:38:39.364Z,-1.91
2022-12-18T05:41:08.169Z,-1.86
2022-12-18T05:43:37.630Z,-1.92
2022-12-18T05:46:07.627Z,-2.08
2022-12-18T05:48:35.599Z,-2.05
2022-12-18T05:51:15.558Z,-2.02
2022-12-18T05:53:44.118Z,-2.02
2022-12-18T05:56:15.710Z,-2.04
2022-12-18T05:58:43.930Z,-2.07
2022-12-18T06:01:16.041Z,-2.01
2022-12-18T06:03:44.213Z,-2.07
2022-12-18T06:06:19.906Z,-2.06
2022-12-18T06:08:47.768Z,-2.11
2022-12-18T06:11:18.509Z,-2.07
2022-12-18T06:13:46.440Z,-2.13
2022-12-18T06:16:14.223Z,-2.14
2022-12-18T06:18:41.822Z,-2.16
2022-12-18T06:21:09.515Z,-2.22
2022-12-18T06:23:37.620Z,-2.20
2022-12-18T06:26:10.693Z,-2.28
2022-12-18T06:28:38.715Z,-2.16
2022-12-18T06:31:07.205Z,-2.16
2022-12-18T06:33:35.576Z,-2.11
2022-12-18T06:36:08.413Z,-2.19
2022-12-18T06:38:37.676Z,-2.19
2022-12-18T06:41:17.115Z,-2.18
2022-12-18T06:43:45.118Z,-2.14
2022-12-18T06:46:13.586Z,-2.13
2022-12-18T06:48:41.308Z,-2.11
2022-12-18T06:51:08.840Z,-2.15
2022-12-18T06:53:36.703Z,-2.13
2022-12-18T06:56:10.171Z,-2.18
2022-12-18T06:58:39.990Z,-2.19
2022-12-18T07:01:11.398Z,-2.15
2022-12-18T07:03:43.584Z,-2.20
2022-12-18T07:06:16.950Z,-2.14
2022-12-18T07:08:45.357Z,-2.12
2022-12-18T07:11:13.566Z,-2.25
2022-12-18T07:13:41.520Z,-2.14
2022-12-18T07:16:22.596Z,-2.14
2022-12-18T07:18:53.000Z,-2.08
2022-12-18T07:21:22.075Z,-2.08
2022-12-18T07:23:49.759Z,-2.03
2022-12-18T07:26:19.796Z,-2.07
2022-12-18T07:28:47.872Z,-1.99
2022-12-18T07:31:18.212Z,-2.04
2022-12-18T07:33:46.684Z,-1.96
2022-12-18T07:36:14.980Z,-1.92
2022-12-18T07:38:42.592Z,-1.93
2022-12-18T07:41:12.701Z,-2.00
2022-12-18T07:43:42.045Z,-1.87
2022-12-18T07:46:10.734Z,-1.87
2022-12-18T07:48:49.523Z,-1.83
2022-12-18T07:51:19.069Z,-1.81
2022-12-18T07:53:49.328Z,-1.71
2022-12-18T07:56:29.384Z,-1.71
2022-12-18T07:58:59.606Z,-1.69
2022-12-18T08:01:27.407Z,-1.69
2022-12-18T08:03:55.554Z,-1.69
2022-12-18T08:06:24.240Z,-1.66
2022-12-18T08:08:56.542Z,-1.67
2022-12-18T08:11:26.585Z,-1.58
2022-12-18T08:13:54.362Z,-1.56
2022-12-18T08:16:22.910Z,-1.54
2022-12-18T08:18:52.251Z,-1.47
2022-12-18T08:21:24.034Z,-1.49
2022-12-18T08:23:55.276Z,-1.46
2022-12-18T08:26:23.431Z,-1.47
2022-12-18T08:28:51.860Z,-1.39
2022-12-18T08:31:20.038Z,-1.31
2022-12-18T08:33:53.269Z,-1.36
2022-12-18T08:36:22.197Z,-1.39
2022-12-18T08:38:49.857Z,-1.30
2022-12-18T08:41:19.066Z,-1.28
2022-12-18T08:44:05.724Z,-1.21
2022-12-18T08:46:38.050Z,-1.20
2022-12-18T08:49:06.658Z,-1.16
2022-12-18T08:51:35.078Z,-1.10
2022-12-18T08:54:04.477Z,-1.06
2022-12-18T08:56:35.193Z,-1.00
2022-12-18T08:59:03.788Z,-0.96
2022-12-18T09:01:31.550Z,-0.93
2022-12-18T09:03:59.951Z,-0.91
2022-12-18T09:06:27.719Z,-0.83
2022-12-18T09:08:55.291Z,-0.80
2022-12-18T09:11:25.607Z,-0.78
2022-12-18T09:13:53.921Z,-0.72
2022-12-18T09:16:25.988Z,-0.65
2022-12-18T09:19:00.590Z,-0.73
2022-12-18T09:21:32.306Z,-0.61
2022-12-18T09:24:02.669Z,-0.56
2022-12-18T09:26:30.240Z,-0.52
2022-12-18T09:28:58.031Z,-0.46
2022-12-18T09:31:25.929Z,-0.41
2022-12-18T09:33:53.457Z,-0.30
2022-12-18T09:36:21.032Z,-0.23
2022-12-18T09:38:49.743Z,-0.22
2022-12-18T09:41:48.988Z,-0.19
2022-12-18T09:44:18.968Z,-0.13
2022-12-18T09:47:34.748Z,-0.03
2022-12-18T09:50:06.131Z,-0.02
2022-12-18T09:52:45.611Z,0.02
2022-12-18T09:55:16.385Z,0.05
2022-12-18T09:57:49.192Z,0.14
2022-12-18T10:00:20.699Z,0.16
2022-12-18T10:02:49.238Z,0.25
2022-12-18T10:05:21.555Z,0.22
2022-12-18T10:08:14.226Z,0.27
2022-12-18T10:10:54.229Z,0.35
2022-12-18T10:13:31.156Z,0.32
2022-12-18T10:16:13.965Z,0.38
2022-12-18T10:19:33.213Z,0.40
2022-12-18T10:22:18.971Z,0.46
2022-12-18T10:25:27.408Z,0.51
2022-12-18T10:27:59.116Z,0.56
2022-12-18T10:30:28.087Z,0.59
2022-12-18T10:32:57.173Z,0.66
2022-12-18T10:35:27.819Z,0.70
2022-12-18T10:38:03.023Z,0.68
2022-12-18T10:40:31.135Z,0.75
2022-12-18T10:43:15.669Z,0.80
2022-12-18T10:45:43.652Z,0.85
2022-12-18T10:48:23.745Z,0.88
2022-12-18T10:53:44.020Z,0.96
2022-12-18T10:56:12.082Z,0.93
2022-12-18T10:58:41.083Z,1.04
2022-12-18T11:01:13.314Z,1.05
2022-12-18T11:03:42.384Z,1.08
2022-12-18T11:06:15.206Z,1.12
2022-12-18T11:08:45.096Z,1.16
2022-12-18T11:11:23.489Z,1.19
2022-12-18T11:13:59.345Z,1.17
2022-12-18T11:16:28.222Z,1.24
2022-12-18T11:19:29.963Z,1.27
2022-12-18T11:21:57.823Z,1.26
2022-12-18T11:24:30.516Z,1.30
2022-12-18T11:27:00.123Z,1.28
2022-12-18T11:29:32.656Z,1.32
2022-12-18T11:32:15.665Z,1.32
2022-12-18T11:34:47.123Z,1.32
2022-12-18T11:37:16.362Z,1.39
2022-12-18T11:39:50.427Z,1.40
2022-12-18T11:42:22.717Z,1.40
2022-12-18T11:45:27.153Z,1.42
2022-12-18T11:48:07.087Z,1.44
2022-12-18T11:50:56.797Z,1.42
2022-12-18T11:53:26.525Z,1.48
2022-12-18T11:56:03.474Z,1.50
2022-12-18T11:58:45.105Z,1.52
2022-12-18T12:01:44.843Z,1.52
2022-12-18T12:04:41.384Z,1.55
2022-12-18T12:07:42.190Z,1.57
2022-12-18T12:10:49.055Z,1.58
2022-12-18T12:13:36.174Z,1.57
2022-12-18T12:16:16.163Z,1.60
2022-12-18T12:19:03.311Z,1.61
2022-12-18T12:21:41.312Z,1.60
2022-12-18T12:24:21.817Z,1.62
2022-12-18T12:27:29.431Z,1.65
2022-12-18T12:30:21.474Z,1.68
2022-12-18T12:33:15.305Z,1.68
2022-12-18T12:36:10.101Z,1.69
2022-12-18T12:38:49.760Z,1.68
2022-12-18T12:41:41.343Z,1.70
2022-12-18T12:44:13.816Z,1.71
2022-12-18T12:46:43.067Z,1.71
2022-12-18T12:49:15.113Z,1.72
2022-12-18T12:51:53.886Z,1.72
2022-12-18T12:54:24.853Z,1.71
2022-12-18T12:57:09.991Z,1.72
2022-12-18T12:59:43.479Z,1.72
2022-12-18T13:02:17.061Z,1.72
2022-12-18T13:04:51.588Z,1.72
2022-12-18T13:07:37.093Z,1.73
2022-12-18T13:10:43.567Z,1.73
2022-12-18T13:13:13.533Z,1.73
2022-12-18T13:15:47.677Z,1.71
2022-12-18T13:18:26.305Z,1.73
2022-12-18T13:21:03.245Z,1.69
2022-12-18T13:23:37.951Z,1.73
2022-12-18T13:26:11.525Z,1.72
2022-12-18T13:28:48.370Z,1.71
2022-12-18T13:31:42.538Z,1.75
2022-12-18T13:34:28.288Z,1.73
2022-12-18T13:37:00.537Z,1.73
2022-12-18T13:39:36.110Z,1.70
2022-12-18T13:42:07.423Z,1.72
2022-12-18T13:44:40.637Z,1.73
2022-12-18T13:47:32.900Z,1.73
2022-12-18T13:50:01.616Z,1.73
2022-12-18T13:52:36.087Z,1.68
2022-12-18T13:55:06.821Z,1.71
2022-12-18T13:57:39.324Z,1.69
2022-12-18T14:00:25.762Z,1.69
2022-12-18T14:02:54.081Z,1.65
2022-12-18T14:05:33.447Z,1.64
2022-12-18T14:08:13.999Z,1.63
2022-12-18T14:10:48.370Z,1.62
2022-12-18T14:13:25.625Z,1.61
2022-12-18T14:15:53.727Z,1.60
2022-12-18T14:18:35.152Z,1.59
2022-12-18T14:21:07.015Z,1.56
2022-12-18T14:23:42.092Z,1.51
2022-12-18T14:26:23.801Z,1.51
2022-12-18T14:28:52.016Z,1.49
2022-12-18T14:31:25.418Z,1.46
2022-12-18T14:33:54.323Z,1.43
2022-12-18T14:36:27.200Z,1.41
2022-12-18T14:38:57.187Z,1.33
2022-12-18T14:41:25.321Z,1.35
2022-12-18T14:43:54.991Z,1.31
2022-12-18T14:46:38.916Z,1.20
2022-12-18T14:49:28.514Z,1.21
2022-12-18T14:52:29.113Z,1.16
2022-12-18T14:54:56.601Z,1.11
2022-12-18T14:57:36.230Z,1.06
2022-12-18T15:00:12.363Z,1.02
2022-12-18T15:02:40.363Z,0.90
2022-12-18T15:05:13.943Z,0.90
2022-12-18T15:07:50.652Z,0.85
2022-12-18T15:10:21.083Z,0.79
2022-12-18T15:12:51.267Z,0.72
2022-12-18T15:15:34.666Z,0.71
2022-12-18T15:18:08.840Z,0.72
2022-12-18T15:20:45.604Z,0.68
2022-12-18T15:23:23.833Z,0.65
2022-12-18T15:26:01.530Z,0.60
2022-12-18T15:28:38.053Z,0.55
2022-12-18T15:31:09.855Z,0.52
2022-12-18T15:33:45.181Z,0.47
2022-12-18T15:36:15.409Z,0.38
2022-12-18T15:38:48.305Z,0.31
2022-12-18T15:41:22.936Z,0.18
2022-12-18T15:43:53.482Z,0.08
2022-12-18T15:46:25.154Z,-0.07
2022-12-18T15:49:01.760Z,-0.13
2022-12-18T15:51:33.860Z,-0.14
2022-12-18T15:54:06.325Z,-0.25
2022-12-18T15:56:53.150Z,-0.27
2022-12-18T15:59:21.833Z,-0.30
2022-12-18T16:01:51.418Z,-0.33
2022-12-18T16:04:21.695Z,-0.37
2022-12-18T16:09:38.068Z,-0.57
2022-12-18T16:12:07.723Z,-0.61
2022-12-18T16:14:35.356Z,-0.63
2022-12-18T16:17:06.896Z,-0.64
2022-12-18T16:19:34.616Z,-0.66
2022-12-18T16:22:03.714Z,-0.67
2022-12-18T16:24:33.629Z,-0.69
2022-12-18T16:27:01.294Z,-0.73
2022-12-18T16:29:29.945Z,-0.82
2022-12-18T16:31:59.451Z,-0.92
2022-12-18T16:34:35.678Z,-0.91
2022-12-18T16:37:06.881Z,-0.96
2022-12-18T16:39:35.655Z,-1.00
2022-12-18T16:42:11.044Z,-1.00
2022-12-18T16:44:39.270Z,-0.98
2022-12-18T16:47:07.030Z,-1.01
2022-12-18T16:49:38.236Z,-1.06
2022-12-18T16:52:07.040Z,-1.00
2022-12-18T16:54:36.730Z,-1.01
2022-12-18T16:57:05.533Z,-1.05
2022-12-18T16:59:34.752Z,-1.09
2022-12-18T17:02:02.523Z,-1.27
2022-12-18T17:04:30.183Z,-1.35
2022-12-18T17:06:59.314Z,-1.39
2022-12-18T17:09:27.059Z,-1.37
2022-12-18T17:11:55.349Z,-1.39
2022-12-18T17:14:24.753Z,-1.40
2022-12-18T17:17:19.874Z,-1.44
2022-12-18T17:19:41.764Z,-1.41
2022-12-18T17:22:09.580Z,-1.52
2022-12-18T17:24:37.549Z,-1.50
2022-12-18T17:27:05.640Z,-1.47
2022-12-18T17:29:33.575Z,-1.45
2022-12-18T17:32:01.344Z,-1.51
2022-12-18T17:34:30.028Z,-1.51
2022-12-18T17:36:58.567Z,-1.54
2022-12-18T17:39:26.224Z,-1.55
2022-12-18T17:41:54.446Z,-1.57
2022-12-18T17:44:22.396Z,-1.58
2022-12-18T17:46:50.230Z,-1.62
2022-12-18T17:49:18.468Z,-1.69
2022-12-18T17:51:46.345Z,-1.79
2022-12-18T17:54:14.187Z,-1.82
2022-12-18T17:56:42.317Z,-1.80
2022-12-18T17:59:10.640Z,-1.82
2022-12-18T18:01:44.417Z,-1.86
2022-12-18T18:04:13.918Z,-1.93
2022-12-18T18:06:42.050Z,-2.04
2022-12-18T18:09:15.618Z,-2.07
2022-12-18T18:12:04.260Z,-2.02
2022-12-18T18:14:32.392Z,-1.98
2022-12-18T18:17:04.442Z,-1.98
2022-12-18T18:19:33.616Z,-1.97
2022-12-18T18:22:02.922Z,-1.97
2022-12-18T18:24:31.179Z,-2.02
2022-12-18T18:27:00.135Z,-2.07
2022-12-18T18:29:32.558Z,-2.11
2022-12-18T18:32:00.412Z,-2.09
2022-12-18T18:34:30.436Z,-2.08
2022-12-18T18:36:58.197Z,-2.15
2022-12-18T18:39:25.945Z,-2.24
2022-12-18T18:41:54.003Z,-2.27
2022-12-18T18:44:25.628Z,-2.31
2022-12-18T18:46:57.818Z,-2.25
2022-12-18T18:49:27.546Z,-2.24
2022-12-18T18:51:57.143Z,-2.19
2022-12-18T18:54:25.725Z,-2.24
2022-12-18T18:57:19.580Z,-2.37
2022-12-18T18:59:42.237Z,-2.42
2022-12-18T19:02:13.316Z,-2.54
2022-12-18T19:04:46.153Z,-2.49
2022-12-18T19:07:25.394Z,-2.44
2022-12-18T19:10:04.264Z,-2.44
2022-12-18T19:12:53.311Z,-2.54
2022-12-18T19:15:23.017Z,-2.51
2022-12-18T19:17:50.838Z,-2.55
2022-12-18T19:20:19.500Z,-2.51
2022-12-18T19:22:54.356Z,-2.52
2022-12-18T19:25:38.061Z,-2.63
2022-12-18T19:28:19.962Z,-2.59
2022-12-18T19:30:50.770Z,-2.63
2022-12-18T19:36:12.910Z,-2.73
2022-12-18T19:38:44.117Z,-2.68
2022-12-18T19:41:14.823Z,-2.64
2022-12-18T19:43:43.861Z,-2.67
2022-12-18T19:46:14.587Z,-2.66
2022-12-18T19:48:44.337Z,-2.79
2022-12-18T19:51:24.527Z,-2.86
2022-12-18T19:53:58.087Z,-2.84
2022-12-18T19:56:29.566Z,-2.81
2022-12-18T19:58:57.746Z,-2.82
2022-12-18T20:01:26.172Z,-2.87
2022-12-18T20:03:55.894Z,-2.86
2022-12-18T20:06:32.789Z,-2.89
2022-12-18T20:09:03.896Z,-2.84
2022-12-18T20:11:32.987Z,-2.85
2022-12-18T20:14:01.155Z,-2.86
2022-12-18T20:16:29.036Z,-2.82
2022-12-18T20:18:56.968Z,-2.87
2022-12-18T20:21:25.574Z,-2.85
2022-12-18T20:23:54.849Z,-2.86
2022-12-18T20:26:24.024Z,-2.91
2022-12-18T20:28:52.592Z,-2.99
2022-12-18T20:31:20.526Z,-2.99
2022-12-18T20:33:49.984Z,-3.02
2022-12-18T20:36:23.545Z,-2.97
2022-12-18T20:38:57.152Z,-3.04
2022-12-18T20:41:37.342Z,-3.13
2022-12-18T20:44:21.854Z,-3.25
2022-12-18T20:46:55.171Z,-3.28
2022-12-18T20:49:24.768Z,-3.23
2022-12-18T20:51:54.673Z,-3.20
2022-12-18T20:54:25.021Z,-3.16
2022-12-18T20:56:53.752Z,-3.15
2022-12-18T20:59:23.195Z,-3.28
2022-12-18T21:01:52.420Z,-3.33
2022-12-18T21:04:21.448Z,-3.25
2022-12-18T21:06:53.392Z,-3.28
2022-12-18T21:09:23.880Z,-3.26
2022-12-18T21:12:13.924Z,-3.19
2022-12-18T21:14:42.938Z,-3.17
2022-12-18T21:17:11.174Z,-3.16
2022-12-18T21:19:39.084Z,-3.17
2022-12-18T21:22:08.198Z,-3.15
2022-12-18T21:24:35.903Z,-3.15
2022-12-18T21:27:04.369Z,-3.18
2022-12-18T21:29:33.196Z,-3.21
2022-12-18T21:32:00.771Z,-3.27
2022-12-18T21:34:29.784Z,-3.29
2022-12-18T21:36:59.480Z,-3.36
2022-12-18T21:39:28.734Z,-3.58
2022-12-18T21:42:15.509Z,-3.55
2022-12-18T21:44:45.191Z,-3.43
2022-12-18T21:47:23.007Z,-3.42
2022-12-18T21:49:52.883Z,-3.42
2022-12-18T21:52:31.779Z,-3.65
2022-12-18T21:55:07.995Z,-3.75
2022-12-18T21:57:38.602Z,-3.67
2022-12-18T22:00:07.105Z,-3.68
2022-12-18T22:02:39.817Z,-3.65
2022-12-18T22:05:08.211Z,-3.60
2022-12-18T22:07:36.652Z,-3.54
2022-12-18T22:10:04.406Z,-3.54
2022-12-18T22:12:43.096Z,-3.53
2022-12-18T22:15:21.489Z,-3.64
2022-12-18T22:17:50.948Z,-3.60
2022-12-18T22:20:20.245Z,-3.58
2022-12-18T22:22:48.809Z,-3.56
2022-12-18T22:25:16.714Z,-3.57
2022-12-18T22:28:04.742Z,-3.56
2022-12-18T22:30:32.970Z,-3.81
2022-12-18T22:33:00.467Z,-3.75
2022-12-18T22:35:28.006Z,-3.69
2022-12-18T22:37:55.944Z,-3.66
2022-12-18T22:40:27.061Z,-3.62
2022-12-18T22:42:54.738Z,-3.66
2022-12-18T22:45:22.519Z,-3.63
2022-12-18T22:47:50.308Z,-3.68
2022-12-18T22:50:17.880Z,-3.78
2022-12-18T22:52:45.853Z,-4.02
2022-12-18T22:55:13.381Z,-3.89
2022-12-18T22:57:42.094Z,-3.79
2022-12-18T23:00:23.780Z,-3.85
2022-12-18T23:03:00.173Z,-3.78
2022-12-18T23:05:30.319Z,-3.69
2022-12-18T23:07:58.622Z,-3.70
2022-12-18T23:10:26.772Z,-3.71
2022-12-18T23:12:54.867Z,-3.81
2022-12-18T23:15:28.152Z,-3.90
2022-12-18T23:17:58.047Z,-3.92
2022-12-18T23:20:26.884Z,-3.92
2022-12-18T23:22:54.405Z,-4.00
2022-12-18T23:25:22.246Z,-4.06
2022-12-18T23:27:50.452Z,-4.01
2022-12-18T23:30:17.987Z,-3.98
2022-12-18T23:32:45.803Z,-4.04
2022-12-18T23:35:14.227Z,-4.10
2022-12-18T23:38:00.564Z,-4.09
2022-12-18T23:40:29.602Z,-4.13
2022-12-18T23:42:57.324Z,-4.28
2022-12-18T23:45:24.771Z,-4.28
2022-12-18T23:47:52.516Z,-4.23
2022-12-18T23:50:24.045Z,-4.24
2022-12-18T23:52:57.470Z,-4.33
2022-12-18T23:55:32.347Z,-4.20
2022-12-18T23:58:00.123Z,-4.15
